MPTO/PTY METAR and TAF weather

Enter ICAO airport designator
Station Type Date Time Source
MPTO METAR 2020/09/22 20:00 UTC NOAA

MPTO 222000Z 29004KT 4000 TSRA SCT012CB BKN060 25/24 Q1009 RWY WET BECMG AT 2030 NSW


Station Type Date Time Source
MPTO Decoded METAR 2020/09/22 20:00 UTC NOAA

Tocumen, Panama (MPTO) 09-03N 079-22W
Sep 22, 2020 - 04:00 PM EDT / 2020.09.22 2000 UTC
Wind: from the WNW (290 degrees) at 5 MPH (4 KT):0
Visibility: 2 mile(s):0
Sky conditions: mostly cloudy
Weather: rain with thunder; Cumulonimbus clouds observed
Temperature: 77 F (25 C)
Dew Point: 75 F (24 C)
Relative Humidity: 94%
Pressure (altimeter): 29.80 in. Hg (1009 hPa)
ob: MPTO 222000Z 29004KT 4000 TSRA SCT012CB BKN060 25/24 Q1009 RWY WET BECMG AT 2030 NSW
cycle: 20

Station Type Date Time Source
MPTO TAF 2020/09/22 18:21 UTC NOAA

TAF TAF COR MPTO 221715Z 2218/2324 26006KT 9999 SCT018 SCT090 PROB40 2219/2223 18008KT 7000 TSRA SCT014CB BKN090
TEMPO 2303/2305 VRB02KT

Example: see airport list